sensor_id;sensor_type;location;lat;lon;timestamp;P1;durP1;ratioP1;P2;durP2;ratioP2
2912;SDS011;1466;48.778;9.166;2022-11-04T00:01:23;16.75;;;4.95;;
2912;SDS011;1466;48.778;9.166;2022-11-04T00:03:48;6.70;;;3.83;;
2912;SDS011;1466;48.778;9.166;2022-11-04T00:06:15;8.07;;;3.67;;
2912;SDS011;1466;48.778;9.166;2022-11-04T00:08:41;8.67;;;4.00;;
2912;SDS011;1466;48.778;9.166;2022-11-04T00:11:08;7.63;;;4.20;;
2912;SDS011;1466;48.778;9.166;2022-11-04T00:13:53;10.35;;;4.30;;
2912;SDS011;1466;48.778;9.166;2022-11-04T00:16:19;22.13;;;6.13;;
2912;SDS011;1466;48.778;9.166;2022-11-04T00:19:03;10.18;;;4.28;;
2912;SDS011;1466;48.778;9.166;2022-11-04T00:21:28;7.40;;;3.80;;
2912;SDS011;1466;48.778;9.166;2022-11-04T00:24:13;8.65;;;4.00;;
2912;SDS011;1466;48.778;9.166;2022-11-04T00:26:57;13.27;;;4.78;;
2912;SDS011;1466;48.778;9.166;2022-11-04T00:29:42;8.07;;;3.85;;
2912;SDS011;1466;48.778;9.166;2022-11-04T00:32:08;16.50;;;4.80;;
2912;SDS011;1466;48.778;9.166;2022-11-04T00:34:52;8.15;;;3.75;;
2912;SDS011;1466;48.778;9.166;2022-11-04T00:37:18;23.17;;;6.37;;
2912;SDS011;1466;48.778;9.166;2022-11-04T00:39:44;5.80;;;3.43;;
2912;SDS011;1466;48.778;9.166;2022-11-04T00:42:09;14.20;;;4.60;;
2912;SDS011;1466;48.778;9.166;2022-11-04T00:44:35;6.30;;;3.50;;
2912;SDS011;1466;48.778;9.166;2022-11-04T00:47:00;12.80;;;4.93;;
2912;SDS011;1466;48.778;9.166;2022-11-04T00:49:26;10.10;;;4.00;;
2912;SDS011;1466;48.778;9.166;2022-11-04T00:51:51;8.27;;;3.73;;
2912;SDS011;1466;48.778;9.166;2022-11-04T00:54:17;13.43;;;4.70;;
2912;SDS011;1466;48.778;9.166;2022-11-04T00:56:43;6.97;;;3.57;;
2912;SDS011;1466;48.778;9.166;2022-11-04T00:59:08;10.00;;;4.20;;
2912;SDS011;1466;48.778;9.166;2022-11-04T01:01:34;8.13;;;3.90;;
2912;SDS011;1466;48.778;9.166;2022-11-04T01:04:00;8.00;;;4.00;;
2912;SDS011;1466;48.778;9.166;2022-11-04T01:06:26;9.03;;;4.00;;
2912;SDS011;1466;48.778;9.166;2022-11-04T01:08:55;5.97;;;3.23;;
2912;SDS011;1466;48.778;9.166;2022-11-04T01:11:22;17.33;;;5.40;;
2912;SDS011;1466;48.778;9.166;2022-11-04T01:13:51;11.90;;;4.45;;
2912;SDS011;1466;48.778;9.166;2022-11-04T01:16:17;10.13;;;3.85;;
2912;SDS011;1466;48.778;9.166;2022-11-04T01:18:43;6.73;;;3.57;;
2912;SDS011;1466;48.778;9.166;2022-11-04T01:21:12;9.20;;;3.70;;
2912;SDS011;1466;48.778;9.166;2022-11-04T01:23:40;10.48;;;3.88;;
2912;SDS011;1466;48.778;9.166;2022-11-04T01:26:07;7.85;;;3.85;;
2912;SDS011;1466;48.778;9.166;2022-11-04T01:28:35;11.85;;;4.70;;
2912;SDS011;1466;48.778;9.166;2022-11-04T01:31:05;11.33;;;4.57;;
2912;SDS011;1466;48.778;9.166;2022-11-04T01:33:31;5.40;;;3.65;;
2912;SDS011;1466;48.778;9.166;2022-11-04T01:36:00;7.33;;;3.87;;
2912;SDS011;1466;48.778;9.166;2022-11-04T01:38:27;13.25;;;4.63;;
2912;SDS011;1466;48.778;9.166;2022-11-04T01:40:52;11.60;;;4.37;;
2912;SDS011;1466;48.778;9.166;2022-11-04T01:43:19;8.70;;;3.70;;
2912;SDS011;1466;48.778;9.166;2022-11-04T01:45:53;7.18;;;3.78;;
2912;SDS011;1466;48.778;9.166;2022-11-04T01:48:26;20.33;;;6.15;;
2912;SDS011;1466;48.778;9.166;2022-11-04T01:50:55;8.15;;;3.70;;
2912;SDS011;1466;48.778;9.166;2022-11-04T01:53:24;21.13;;;5.78;;
2912;SDS011;1466;48.778;9.166;2022-11-04T01:55:59;7.60;;;3.70;;
2912;SDS011;1466;48.778;9.166;2022-11-04T01:58:30;15.23;;;4.95;;
2912;SDS011;1466;48.778;9.166;2022-11-04T02:00:58;8.27;;;3.70;;
2912;SDS011;1466;48.778;9.166;2022-11-04T02:03:25;10.63;;;4.20;;
2912;SDS011;1466;48.778;9.166;2022-11-04T02:05:55;8.80;;;3.65;;
2912;SDS011;1466;48.778;9.166;2022-11-04T02:08:22;6.88;;;3.80;;
2912;SDS011;1466;48.778;9.166;2022-11-04T02:10:57;5.53;;;3.10;;
2912;SDS011;1466;48.778;9.166;2022-11-04T02:13:24;13.68;;;4.43;;
2912;SDS011;1466;48.778;9.166;2022-11-04T02:16:10;5.45;;;3.30;;
2912;SDS011;1466;48.778;9.166;2022-11-04T02:33:22;6.82;;;3.42;;
2912;SDS011;1466;48.778;9.166;2022-11-04T02:38:50;19.33;;;5.32;;
2912;SDS011;1466;48.778;9.166;2022-11-04T02:44:12;9.75;;;3.92;;
2912;SDS011;1466;48.778;9.166;2022-11-04T02:47:07;8.13;;;3.63;;
2912;SDS011;1466;48.778;9.166;2022-11-04T02:52:14;7.55;;;3.45;;
2912;SDS011;1466;48.778;9.166;2022-11-04T02:57:12;7.22;;;3.55;;
2912;SDS011;1466;48.778;9.166;2022-11-04T03:02:21;7.03;;;3.70;;
2912;SDS011;1466;48.778;9.166;2022-11-04T03:04:54;4.45;;;3.00;;
2912;SDS011;1466;48.778;9.166;2022-11-04T03:07:23;12.30;;;4.28;;
2912;SDS011;1466;48.778;9.166;2022-11-04T03:09:54;6.25;;;3.38;;
2912;SDS011;1466;48.778;9.166;2022-11-04T03:12:24;7.55;;;3.55;;
2912;SDS011;1466;48.778;9.166;2022-11-04T03:15:01;6.90;;;3.25;;
2912;SDS011;1466;48.778;9.166;2022-11-04T03:17:35;16.35;;;4.88;;
2912;SDS011;1466;48.778;9.166;2022-11-04T03:20:12;9.13;;;3.80;;
2912;SDS011;1466;48.778;9.166;2022-11-04T03:22:46;8.20;;;3.35;;
2912;SDS011;1466;48.778;9.166;2022-11-04T03:25:12;7.20;;;3.50;;
2912;SDS011;1466;48.778;9.166;2022-11-04T03:27:50;8.43;;;3.80;;
2912;SDS011;1466;48.778;9.166;2022-11-04T03:30:41;10.80;;;3.50;;
2912;SDS011;1466;48.778;9.166;2022-11-04T03:35:48;7.10;;;3.42;;
2912;SDS011;1466;48.778;9.166;2022-11-04T03:38:14;8.87;;;3.90;;
2912;SDS011;1466;48.778;9.166;2022-11-04T03:40:40;6.60;;;3.20;;
2912;SDS011;1466;48.778;9.166;2022-11-04T03:43:13;8.77;;;3.67;;
2912;SDS011;1466;48.778;9.166;2022-11-04T03:45:51;15.75;;;3.60;;
2912;SDS011;1466;48.778;9.166;2022-11-04T03:48:18;9.25;;;3.80;;
2912;SDS011;1466;48.778;9.166;2022-11-04T03:50:44;7.40;;;3.47;;
2912;SDS011;1466;48.778;9.166;2022-11-04T03:53:16;6.82;;;3.50;;
2912;SDS011;1466;48.778;9.166;2022-11-04T04:01:29;6.25;;;3.35;;
2912;SDS011;1466;48.778;9.166;2022-11-04T04:06:38;10.73;;;4.15;;
2912;SDS011;1466;48.778;9.166;2022-11-04T04:09:13;7.65;;;3.63;;
2912;SDS011;1466;48.778;9.166;2022-11-04T04:11:56;8.82;;;3.92;;
2912;SDS011;1466;48.778;9.166;2022-11-04T04:14:34;6.80;;;3.63;;
2912;SDS011;1466;48.778;9.166;2022-11-04T04:19:37;7.35;;;3.65;;
2912;SDS011;1466;48.778;9.166;2022-11-04T04:22:06;8.80;;;3.47;;
2912;SDS011;1466;48.778;9.166;2022-11-04T04:24:38;8.27;;;4.25;;
2912;SDS011;1466;48.778;9.166;2022-11-04T04:27:26;10.45;;;4.60;;
2912;SDS011;1466;48.778;9.166;2022-11-04T04:30:02;7.05;;;3.63;;
2912;SDS011;1466;48.778;9.166;2022-11-04T04:32:32;8.15;;;3.70;;
2912;SDS011;1466;48.778;9.166;2022-11-04T04:35:00;7.85;;;3.70;;
2912;SDS011;1466;48.778;9.166;2022-11-04T04:37:45;16.35;;;5.38;;
2912;SDS011;1466;48.778;9.166;2022-11-04T04:40:14;8.00;;;3.95;;
2912;SDS011;1466;48.778;9.166;2022-11-04T04:43:01;10.43;;;4.35;;
2912;SDS011;1466;48.778;9.166;2022-11-04T04:45:48;13.15;;;4.57;;
2912;SDS011;1466;48.778;9.166;2022-11-04T04:48:16;12.07;;;4.47;;
2912;SDS011;1466;48.778;9.166;2022-11-04T04:50:51;10.93;;;3.53;;
2912;SDS011;1466;48.778;9.166;2022-11-04T04:53:21;8.02;;;3.70;;
2912;SDS011;1466;48.778;9.166;2022-11-04T04:55:47;8.93;;;4.10;;
2912;SDS011;1466;48.778;9.166;2022-11-04T04:58:12;9.77;;;3.63;;
2912;SDS011;1466;48.778;9.166;2022-11-04T05:00:38;11.63;;;3.40;;
2912;SDS011;1466;48.778;9.166;2022-11-04T05:03:04;11.10;;;4.27;;
2912;SDS011;1466;48.778;9.166;2022-11-04T05:05:29;5.30;;;2.93;;
2912;SDS011;1466;48.778;9.166;2022-11-04T05:07:55;7.27;;;3.67;;
2912;SDS011;1466;48.778;9.166;2022-11-04T05:10:27;10.13;;;4.00;;
2912;SDS011;1466;48.778;9.166;2022-11-04T05:12:53;8.93;;;3.77;;
2912;SDS011;1466;48.778;9.166;2022-11-04T05:15:37;6.55;;;2.92;;
2912;SDS011;1466;48.778;9.166;2022-11-04T05:18:02;7.30;;;3.60;;
2912;SDS011;1466;48.778;9.166;2022-11-04T05:20:28;9.03;;;3.73;;
2912;SDS011;1466;48.778;9.166;2022-11-04T05:22:56;9.32;;;3.55;;
2912;SDS011;1466;48.778;9.166;2022-11-04T05:25:22;9.70;;;4.03;;
2912;SDS011;1466;48.778;9.166;2022-11-04T05:27:47;8.23;;;3.67;;
2912;SDS011;1466;48.778;9.166;2022-11-04T05:30:13;7.93;;;3.77;;
2912;SDS011;1466;48.778;9.166;2022-11-04T05:32:38;7.40;;;3.30;;
2912;SDS011;1466;48.778;9.166;2022-11-04T05:35:04;24.93;;;6.53;;
2912;SDS011;1466;48.778;9.166;2022-11-04T05:37:30;13.30;;;4.03;;
2912;SDS011;1466;48.778;9.166;2022-11-04T05:39:56;9.67;;;3.80;;
2912;SDS011;1466;48.778;9.166;2022-11-04T05:42:21;13.90;;;4.73;;
2912;SDS011;1466;48.778;9.166;2022-11-04T05:44:47;12.00;;;4.27;;
2912;SDS011;1466;48.778;9.166;2022-11-04T05:47:12;13.13;;;4.37;;
2912;SDS011;1466;48.778;9.166;2022-11-04T05:49:38;21.40;;;5.23;;
2912;SDS011;1466;48.778;9.166;2022-11-04T05:52:04;16.90;;;5.50;;
2912;SDS011;1466;48.778;9.166;2022-11-04T05:54:30;8.40;;;3.87;;
2912;SDS011;1466;48.778;9.166;2022-11-04T05:56:55;7.90;;;3.70;;
2912;SDS011;1466;48.778;9.166;2022-11-04T05:59:21;8.77;;;4.00;;
2912;SDS011;1466;48.778;9.166;2022-11-04T06:01:47;11.00;;;4.10;;
2912;SDS011;1466;48.778;9.166;2022-11-04T06:04:15;9.35;;;3.72;;
2912;SDS011;1466;48.778;9.166;2022-11-04T06:06:41;6.82;;;3.55;;
2912;SDS011;1466;48.778;9.166;2022-11-04T06:09:07;10.40;;;4.20;;
2912;SDS011;1466;48.778;9.166;2022-11-04T06:11:33;11.37;;;4.03;;
2912;SDS011;1466;48.778;9.166;2022-11-04T06:13:59;9.23;;;4.05;;
2912;SDS011;1466;48.778;9.166;2022-11-04T06:16:25;5.50;;;3.33;;
2912;SDS011;1466;48.778;9.166;2022-11-04T06:18:51;7.60;;;3.45;;
2912;SDS011;1466;48.778;9.166;2022-11-04T06:21:19;9.63;;;3.63;;
2912;SDS011;1466;48.778;9.166;2022-11-04T06:23:53;11.30;;;4.32;;
2912;SDS011;1466;48.778;9.166;2022-11-04T06:26:21;15.98;;;5.03;;
2912;SDS011;1466;48.778;9.166;2022-11-04T06:28:47;6.82;;;3.42;;
2912;SDS011;1466;48.778;9.166;2022-11-04T06:31:13;7.73;;;3.57;;
2912;SDS011;1466;48.778;9.166;2022-11-04T06:33:39;11.68;;;4.05;;
2912;SDS011;1466;48.778;9.166;2022-11-04T06:36:06;11.07;;;4.53;;
2912;SDS011;1466;48.778;9.166;2022-11-04T06:38:33;11.65;;;4.68;;
2912;SDS011;1466;48.778;9.166;2022-11-04T06:41:00;13.85;;;4.68;;
2912;SDS011;1466;48.778;9.166;2022-11-04T06:43:26;14.93;;;5.27;;
2912;SDS011;1466;48.778;9.166;2022-11-04T06:45:55;9.03;;;4.13;;
2912;SDS011;1466;48.778;9.166;2022-11-04T06:48:22;12.82;;;4.93;;
2912;SDS011;1466;48.778;9.166;2022-11-04T06:50:47;11.87;;;4.50;;
2912;SDS011;1466;48.778;9.166;2022-11-04T06:53:13;13.30;;;5.00;;
2912;SDS011;1466;48.778;9.166;2022-11-04T06:55:39;8.50;;;4.10;;
2912;SDS011;1466;48.778;9.166;2022-11-04T06:58:04;11.20;;;4.27;;
2912;SDS011;1466;48.778;9.166;2022-11-04T07:00:30;14.87;;;5.17;;
2912;SDS011;1466;48.778;9.166;2022-11-04T07:02:56;8.27;;;3.80;;
2912;SDS011;1466;48.778;9.166;2022-11-04T07:05:21;7.00;;;4.00;;
2912;SDS011;1466;48.778;9.166;2022-11-04T07:07:47;7.80;;;4.00;;
2912;SDS011;1466;48.778;9.166;2022-11-04T07:10:13;13.00;;;4.67;;
2912;SDS011;1466;48.778;9.166;2022-11-04T07:12:38;8.37;;;4.10;;
2912;SDS011;1466;48.778;9.166;2022-11-04T07:15:04;8.10;;;4.33;;
2912;SDS011;1466;48.778;9.166;2022-11-04T07:17:30;9.10;;;3.78;;
2912;SDS011;1466;48.778;9.166;2022-11-04T07:19:55;10.57;;;4.20;;
2912;SDS011;1466;48.778;9.166;2022-11-04T07:22:21;16.30;;;5.00;;
2912;SDS011;1466;48.778;9.166;2022-11-04T07:24:47;9.63;;;3.83;;
2912;SDS011;1466;48.778;9.166;2022-11-04T07:27:13;8.60;;;3.78;;
2912;SDS011;1466;48.778;9.166;2022-11-04T07:29:39;9.53;;;4.13;;
2912;SDS011;1466;48.778;9.166;2022-11-04T07:32:04;16.67;;;5.30;;
2912;SDS011;1466;48.778;9.166;2022-11-04T07:34:30;9.23;;;3.77;;
2912;SDS011;1466;48.778;9.166;2022-11-04T07:36:56;11.40;;;4.43;;
2912;SDS011;1466;48.778;9.166;2022-11-04T07:39:21;15.23;;;5.00;;
2912;SDS011;1466;48.778;9.166;2022-11-04T07:41:47;8.67;;;3.97;;
2912;SDS011;1466;48.778;9.166;2022-11-04T07:44:13;12.83;;;4.67;;
2912;SDS011;1466;48.778;9.166;2022-11-04T07:46:38;6.10;;;3.20;;
2912;SDS011;1466;48.778;9.166;2022-11-04T07:49:05;9.02;;;4.15;;
2912;SDS011;1466;48.778;9.166;2022-11-04T07:51:30;13.90;;;4.77;;
2912;SDS011;1466;48.778;9.166;2022-11-04T07:53:56;16.53;;;4.80;;
2912;SDS011;1466;48.778;9.166;2022-11-04T07:56:22;9.43;;;4.22;;
2912;SDS011;1466;48.778;9.166;2022-11-04T07:58:48;11.40;;;4.27;;
2912;SDS011;1466;48.778;9.166;2022-11-04T08:01:15;8.30;;;3.83;;
2912;SDS011;1466;48.778;9.166;2022-11-04T08:03:42;7.95;;;3.83;;
2912;SDS011;1466;48.778;9.166;2022-11-04T08:06:09;14.75;;;5.45;;
2912;SDS011;1466;48.778;9.166;2022-11-04T08:08:36;13.05;;;4.55;;
2912;SDS011;1466;48.778;9.166;2022-11-04T08:11:04;10.63;;;4.67;;
2912;SDS011;1466;48.778;9.166;2022-11-04T08:13:33;14.25;;;5.15;;
2912;SDS011;1466;48.778;9.166;2022-11-04T08:16:00;8.65;;;3.80;;
2912;SDS011;1466;48.778;9.166;2022-11-04T08:18:28;15.82;;;5.30;;
2912;SDS011;1466;48.778;9.166;2022-11-04T08:20:55;11.98;;;4.65;;
2912;SDS011;1466;48.778;9.166;2022-11-04T08:23:20;10.63;;;4.20;;
2912;SDS011;1466;48.778;9.166;2022-11-04T08:25:46;10.23;;;4.47;;
2912;SDS011;1466;48.778;9.166;2022-11-04T08:28:12;8.30;;;4.10;;
2912;SDS011;1466;48.778;9.166;2022-11-04T08:30:50;4.35;;;3.70;;
2912;SDS011;1466;48.778;9.166;2022-11-04T08:33:20;7.32;;;4.03;;
2912;SDS011;1466;48.778;9.166;2022-11-04T08:35:46;10.20;;;4.43;;
2912;SDS011;1466;48.778;9.166;2022-11-04T08:38:11;8.10;;;3.87;;
2912;SDS011;1466;48.778;9.166;2022-11-04T08:40:37;9.67;;;4.30;;
2912;SDS011;1466;48.778;9.166;2022-11-04T08:43:02;10.23;;;4.17;;
2912;SDS011;1466;48.778;9.166;2022-11-04T08:45:28;9.30;;;4.57;;
2912;SDS011;1466;48.778;9.166;2022-11-04T08:47:54;9.80;;;4.20;;
2912;SDS011;1466;48.778;9.166;2022-11-04T08:50:19;8.87;;;4.00;;
2912;SDS011;1466;48.778;9.166;2022-11-04T08:52:51;5.60;;;3.17;;
2912;SDS011;1466;48.778;9.166;2022-11-04T08:55:17;19.65;;;5.88;;
2912;SDS011;1466;48.778;9.166;2022-11-04T08:57:43;17.17;;;5.27;;
2912;SDS011;1466;48.778;9.166;2022-11-04T09:00:09;11.93;;;4.23;;
2912;SDS011;1466;48.778;9.166;2022-11-04T09:02:35;9.32;;;4.15;;
2912;SDS011;1466;48.778;9.166;2022-11-04T09:05:01;12.80;;;4.90;;
2912;SDS011;1466;48.778;9.166;2022-11-04T09:07:27;8.80;;;4.28;;
2912;SDS011;1466;48.778;9.166;2022-11-04T09:09:53;13.13;;;4.47;;
2912;SDS011;1466;48.778;9.166;2022-11-04T09:12:18;11.80;;;5.60;;
2912;SDS011;1466;48.778;9.166;2022-11-04T09:14:44;10.10;;;5.20;;
2912;SDS011;1466;48.778;9.166;2022-11-04T09:17:10;14.40;;;6.20;;
2912;SDS011;1466;48.778;9.166;2022-11-04T09:19:35;16.60;;;4.50;;
2912;SDS011;1466;48.778;9.166;2022-11-04T09:22:01;9.10;;;3.93;;
2912;SDS011;1466;48.778;9.166;2022-11-04T09:24:27;5.57;;;3.27;;
2912;SDS011;1466;48.778;9.166;2022-11-04T09:26:52;11.17;;;4.23;;
2912;SDS011;1466;48.778;9.166;2022-11-04T09:29:18;12.63;;;3.80;;
2912;SDS011;1466;48.778;9.166;2022-11-04T09:31:43;9.87;;;4.03;;
2912;SDS011;1466;48.778;9.166;2022-11-04T09:34:09;13.37;;;4.93;;
2912;SDS011;1466;48.778;9.166;2022-11-04T09:36:34;9.37;;;4.27;;
2912;SDS011;1466;48.778;9.166;2022-11-04T09:39:00;10.50;;;4.40;;
2912;SDS011;1466;48.778;9.166;2022-11-04T09:46:57;13.55;;;5.78;;
2912;SDS011;1466;48.778;9.166;2022-11-04T09:49:27;8.98;;;5.20;;
2912;SDS011;1466;48.778;9.166;2022-11-04T09:51:57;12.43;;;6.10;;
2912;SDS011;1466;48.778;9.166;2022-11-04T09:54:49;12.32;;;5.78;;
2912;SDS011;1466;48.778;9.166;2022-11-04T09:57:16;33.00;;;9.02;;
2912;SDS011;1466;48.778;9.166;2022-11-04T09:59:43;16.20;;;6.63;;
2912;SDS011;1466;48.778;9.166;2022-11-04T10:15:42;13.20;;;6.35;;
2912;SDS011;1466;48.778;9.166;2022-11-04T10:18:39;28.38;;;8.43;;
2912;SDS011;1466;48.778;9.166;2022-11-04T10:23:47;17.48;;;6.47;;
2912;SDS011;1466;48.778;9.166;2022-11-04T10:26:40;13.00;;;6.05;;
2912;SDS011;1466;48.778;9.166;2022-11-04T10:29:18;12.55;;;5.95;;
2912;SDS011;1466;48.778;9.166;2022-11-04T10:31:49;9.25;;;5.45;;
2912;SDS011;1466;48.778;9.166;2022-11-04T10:37:12;10.05;;;5.60;;
2912;SDS011;1466;48.778;9.166;2022-11-04T10:39:40;8.67;;;5.10;;
2912;SDS011;1466;48.778;9.166;2022-11-04T10:42:26;14.27;;;6.05;;
2912;SDS011;1466;48.778;9.166;2022-11-04T10:44:51;14.02;;;5.93;;
2912;SDS011;1466;48.778;9.166;2022-11-04T10:52:37;19.80;;;6.18;;
2912;SDS011;1466;48.778;9.166;2022-11-04T10:58:16;19.88;;;6.55;;
2912;SDS011;1466;48.778;9.166;2022-11-04T11:00:45;21.52;;;6.85;;
2912;SDS011;1466;48.778;9.166;2022-11-04T11:08:44;13.90;;;6.20;;
2912;SDS011;1466;48.778;9.166;2022-11-04T11:11:11;13.48;;;5.78;;
2912;SDS011;1466;48.778;9.166;2022-11-04T11:13:40;13.60;;;5.60;;
2912;SDS011;1466;48.778;9.166;2022-11-04T11:16:27;15.68;;;5.55;;
2912;SDS011;1466;48.778;9.166;2022-11-04T11:21:43;27.17;;;8.15;;
2912;SDS011;1466;48.778;9.166;2022-11-04T11:24:22;30.38;;;7.55;;
2912;SDS011;1466;48.778;9.166;2022-11-04T11:26:55;10.52;;;4.70;;
2912;SDS011;1466;48.778;9.166;2022-11-04T11:31:53;15.60;;;6.00;;
2912;SDS011;1466;48.778;9.166;2022-11-04T11:36:50;9.45;;;5.97;;
2912;SDS011;1466;48.778;9.166;2022-11-04T11:39:18;15.07;;;6.30;;
2912;SDS011;1466;48.778;9.166;2022-11-04T11:41:49;17.35;;;5.45;;
2912;SDS011;1466;48.778;9.166;2022-11-04T11:46:59;17.63;;;6.72;;
2912;SDS011;1466;48.778;9.166;2022-11-04T11:49:30;17.88;;;6.32;;
2912;SDS011;1466;48.778;9.166;2022-11-04T11:54:42;14.48;;;6.35;;
2912;SDS011;1466;48.778;9.166;2022-11-04T11:57:30;15.48;;;6.90;;
2912;SDS011;1466;48.778;9.166;2022-11-04T12:00:18;18.17;;;6.45;;
2912;SDS011;1466;48.778;9.166;2022-11-04T12:02:51;12.48;;;4.75;;
2912;SDS011;1466;48.778;9.166;2022-11-04T12:05:18;33.55;;;8.38;;
2912;SDS011;1466;48.778;9.166;2022-11-04T12:07:56;15.55;;;6.85;;
2912;SDS011;1466;48.778;9.166;2022-11-04T12:11:13;18.13;;;6.63;;
2912;SDS011;1466;48.778;9.166;2022-11-04T12:21:22;13.00;;;6.93;;
2912;SDS011;1466;48.778;9.166;2022-11-04T12:34:56;14.45;;;6.18;;
2912;SDS011;1466;48.778;9.166;2022-11-04T12:40:18;16.80;;;6.35;;
2912;SDS011;1466;48.778;9.166;2022-11-04T12:42:55;13.63;;;6.40;;
2912;SDS011;1466;48.778;9.166;2022-11-04T12:48:08;13.85;;;6.25;;
2912;SDS011;1466;48.778;9.166;2022-11-04T12:56:13;15.50;;;7.13;;
2912;SDS011;1466;48.778;9.166;2022-11-04T13:02:01;17.00;;;7.72;;
2912;SDS011;1466;48.778;9.166;2022-11-04T13:04:35;18.98;;;7.53;;
2912;SDS011;1466;48.778;9.166;2022-11-04T13:07:11;16.38;;;6.10;;
2912;SDS011;1466;48.778;9.166;2022-11-04T13:09:50;14.77;;;6.05;;
2912;SDS011;1466;48.778;9.166;2022-11-04T13:12:20;15.88;;;5.68;;
2912;SDS011;1466;48.778;9.166;2022-11-04T13:17:21;22.88;;;7.47;;
2912;SDS011;1466;48.778;9.166;2022-11-04T13:19:54;15.75;;;6.28;;
2912;SDS011;1466;48.778;9.166;2022-11-04T13:22:25;15.65;;;6.10;;
2912;SDS011;1466;48.778;9.166;2022-11-04T13:25:05;21.13;;;6.40;;
2912;SDS011;1466;48.778;9.166;2022-11-04T13:27:40;13.23;;;6.07;;
2912;SDS011;1466;48.778;9.166;2022-11-04T13:30:18;26.63;;;7.32;;
2912;SDS011;1466;48.778;9.166;2022-11-04T13:35:28;16.02;;;6.28;;
2912;SDS011;1466;48.778;9.166;2022-11-04T13:38:46;27.88;;;8.60;;
2912;SDS011;1466;48.778;9.166;2022-11-04T13:43:31;12.13;;;5.60;;
2912;SDS011;1466;48.778;9.166;2022-11-04T13:46:02;14.52;;;7.00;;
2912;SDS011;1466;48.778;9.166;2022-11-04T13:48:34;23.35;;;7.63;;
2912;SDS011;1466;48.778;9.166;2022-11-04T13:51:05;16.52;;;5.75;;
2912;SDS011;1466;48.778;9.166;2022-11-04T13:56:25;17.63;;;4.95;;
2912;SDS011;1466;48.778;9.166;2022-11-04T13:58:51;10.77;;;4.85;;
2912;SDS011;1466;48.778;9.166;2022-11-04T14:14:45;12.05;;;4.43;;
2912;SDS011;1466;48.778;9.166;2022-11-04T14:22:31;13.98;;;5.22;;
2912;SDS011;1466;48.778;9.166;2022-11-04T14:27:44;16.10;;;4.97;;
2912;SDS011;1466;48.778;9.166;2022-11-04T14:33:00;22.48;;;6.47;;
2912;SDS011;1466;48.778;9.166;2022-11-04T14:35:32;22.05;;;5.32;;
2912;SDS011;1466;48.778;9.166;2022-11-04T14:38:02;18.75;;;5.03;;
2912;SDS011;1466;48.778;9.166;2022-11-04T14:40:48;11.52;;;4.50;;
2912;SDS011;1466;48.778;9.166;2022-11-04T14:43:35;30.13;;;7.50;;
2912;SDS011;1466;48.778;9.166;2022-11-04T14:46:05;16.70;;;5.88;;
2912;SDS011;1466;48.778;9.166;2022-11-04T14:48:32;12.82;;;5.07;;
2912;SDS011;1466;48.778;9.166;2022-11-04T14:50:58;27.50;;;12.35;;
2912;SDS011;1466;48.778;9.166;2022-11-04T14:53:27;16.97;;;6.30;;
2912;SDS011;1466;48.778;9.166;2022-11-04T14:56:19;17.88;;;5.72;;
2912;SDS011;1466;48.778;9.166;2022-11-04T15:01:24;14.30;;;5.82;;
2912;SDS011;1466;48.778;9.166;2022-11-04T15:03:52;23.63;;;7.40;;
2912;SDS011;1466;48.778;9.166;2022-11-04T15:06:22;29.27;;;8.43;;
2912;SDS011;1466;48.778;9.166;2022-11-04T15:08:50;13.50;;;5.43;;
2912;SDS011;1466;48.778;9.166;2022-11-04T15:11:17;11.53;;;5.47;;
2912;SDS011;1466;48.778;9.166;2022-11-04T15:14:21;25.70;;;7.85;;
2912;SDS011;1466;48.778;9.166;2022-11-04T15:16:53;12.27;;;5.47;;
2912;SDS011;1466;48.778;9.166;2022-11-04T15:21:54;8.88;;;4.15;;
2912;SDS011;1466;48.778;9.166;2022-11-04T15:24:21;37.22;;;9.00;;
2912;SDS011;1466;48.778;9.166;2022-11-04T15:26:48;11.13;;;4.87;;
2912;SDS011;1466;48.778;9.166;2022-11-04T15:29:23;10.50;;;4.95;;
2912;SDS011;1466;48.778;9.166;2022-11-04T15:31:59;17.85;;;6.18;;
2912;SDS011;1466;48.778;9.166;2022-11-04T15:34:26;11.85;;;5.78;;
2912;SDS011;1466;48.778;9.166;2022-11-04T15:36:54;10.73;;;5.13;;
2912;SDS011;1466;48.778;9.166;2022-11-04T15:39:27;17.50;;;6.15;;
2912;SDS011;1466;48.778;9.166;2022-11-04T15:41:56;10.10;;;5.57;;
2912;SDS011;1466;48.778;9.166;2022-11-04T15:49:46;15.85;;;5.75;;
2912;SDS011;1466;48.778;9.166;2022-11-04T15:54:45;9.07;;;3.88;;
2912;SDS011;1466;48.778;9.166;2022-11-04T16:07:53;12.00;;;4.57;;
2912;SDS011;1466;48.778;9.166;2022-11-04T16:12:57;7.60;;;3.60;;
2912;SDS011;1466;48.778;9.166;2022-11-04T16:18:06;10.68;;;3.55;;
2912;SDS011;1466;48.778;9.166;2022-11-04T16:20:46;15.35;;;5.22;;
2912;SDS011;1466;48.778;9.166;2022-11-04T16:23:15;11.68;;;4.97;;
2912;SDS011;1466;48.778;9.166;2022-11-04T16:25:42;16.95;;;5.65;;
2912;SDS011;1466;48.778;9.166;2022-11-04T16:28:20;10.27;;;4.60;;
2912;SDS011;1466;48.778;9.166;2022-11-04T16:30:56;15.80;;;5.53;;
2912;SDS011;1466;48.778;9.166;2022-11-04T16:33:23;13.80;;;4.90;;
2912;SDS011;1466;48.778;9.166;2022-11-04T16:35:49;13.93;;;4.90;;
2912;SDS011;1466;48.778;9.166;2022-11-04T16:38:15;7.97;;;3.77;;
2912;SDS011;1466;48.778;9.166;2022-11-04T16:40:41;9.03;;;3.57;;
2912;SDS011;1466;48.778;9.166;2022-11-04T16:43:09;10.88;;;4.45;;
2912;SDS011;1466;48.778;9.166;2022-11-04T16:45:36;11.25;;;5.00;;
2912;SDS011;1466;48.778;9.166;2022-11-04T16:48:02;13.63;;;4.90;;
2912;SDS011;1466;48.778;9.166;2022-11-04T16:50:29;11.63;;;4.90;;
2912;SDS011;1466;48.778;9.166;2022-11-04T16:52:56;8.07;;;3.80;;
2912;SDS011;1466;48.778;9.166;2022-11-04T16:55:22;12.90;;;4.68;;
2912;SDS011;1466;48.778;9.166;2022-11-04T16:57:50;14.57;;;5.07;;
2912;SDS011;1466;48.778;9.166;2022-11-04T17:00:22;7.65;;;3.83;;
2912;SDS011;1466;48.778;9.166;2022-11-04T17:02:49;7.90;;;3.70;;
2912;SDS011;1466;48.778;9.166;2022-11-04T17:05:15;66.25;;;12.70;;
2912;SDS011;1466;48.778;9.166;2022-11-04T17:07:41;11.48;;;4.80;;
2912;SDS011;1466;48.778;9.166;2022-11-04T17:12:41;10.60;;;3.90;;
2912;SDS011;1466;48.778;9.166;2022-11-04T17:15:06;6.10;;;3.67;;
2912;SDS011;1466;48.778;9.166;2022-11-04T17:17:32;18.27;;;6.07;;
2912;SDS011;1466;48.778;9.166;2022-11-04T17:19:58;7.73;;;4.20;;
2912;SDS011;1466;48.778;9.166;2022-11-04T17:22:24;14.50;;;5.00;;
2912;SDS011;1466;48.778;9.166;2022-11-04T17:24:49;8.90;;;4.27;;
2912;SDS011;1466;48.778;9.166;2022-11-04T17:27:15;14.27;;;5.30;;
2912;SDS011;1466;48.778;9.166;2022-11-04T17:29:40;21.70;;;6.20;;
2912;SDS011;1466;48.778;9.166;2022-11-04T17:32:07;18.87;;;6.60;;
2912;SDS011;1466;48.778;9.166;2022-11-04T17:34:33;11.60;;;5.28;;
2912;SDS011;1466;48.778;9.166;2022-11-04T17:36:59;10.35;;;5.68;;
2912;SDS011;1466;48.778;9.166;2022-11-04T17:39:25;13.85;;;6.00;;
2912;SDS011;1466;48.778;9.166;2022-11-04T17:41:51;21.63;;;7.80;;
2912;SDS011;1466;48.778;9.166;2022-11-04T17:44:36;14.00;;;7.43;;
2912;SDS011;1466;48.778;9.166;2022-11-04T17:47:02;16.00;;;7.50;;
2912;SDS011;1466;48.778;9.166;2022-11-04T17:49:27;58.50;;;13.70;;
2912;SDS011;1466;48.778;9.166;2022-11-04T17:51:54;39.83;;;11.27;;
2912;SDS011;1466;48.778;9.166;2022-11-04T17:54:22;59.33;;;13.13;;
2912;SDS011;1466;48.778;9.166;2022-11-04T17:56:49;47.03;;;11.02;;
2912;SDS011;1466;48.778;9.166;2022-11-04T17:59:15;49.58;;;11.18;;
2912;SDS011;1466;48.778;9.166;2022-11-04T18:01:41;58.30;;;14.18;;
2912;SDS011;1466;48.778;9.166;2022-11-04T18:04:11;53.22;;;11.68;;
2912;SDS011;1466;48.778;9.166;2022-11-04T18:06:39;35.58;;;8.63;;
2912;SDS011;1466;48.778;9.166;2022-11-04T18:09:05;52.53;;;11.20;;
2912;SDS011;1466;48.778;9.166;2022-11-04T18:11:31;41.72;;;9.60;;
2912;SDS011;1466;48.778;9.166;2022-11-04T18:14:15;58.67;;;12.07;;
2912;SDS011;1466;48.778;9.166;2022-11-04T18:16:43;38.90;;;9.35;;
2912;SDS011;1466;48.778;9.166;2022-11-04T18:19:10;48.17;;;11.00;;
2912;SDS011;1466;48.778;9.166;2022-11-04T18:21:36;21.00;;;6.85;;
2912;SDS011;1466;48.778;9.166;2022-11-04T18:24:02;19.93;;;6.73;;
2912;SDS011;1466;48.778;9.166;2022-11-04T18:26:28;18.63;;;7.03;;
2912;SDS011;1466;48.778;9.166;2022-11-04T18:28:54;19.23;;;6.38;;
2912;SDS011;1466;48.778;9.166;2022-11-04T18:31:24;15.50;;;5.50;;
2912;SDS011;1466;48.778;9.166;2022-11-04T18:33:56;14.02;;;5.93;;